createdAt,value
2022-07-29T00:01:22.387Z,16.06
2022-07-29T00:03:50.910Z,16.08
2022-07-29T00:06:19.157Z,16.10
2022-07-29T00:08:47.353Z,16.13
2022-07-29T00:11:15.515Z,16.11
2022-07-29T00:13:50.558Z,16.12
2022-07-29T00:16:19.296Z,16.14
2022-07-29T00:18:47.564Z,16.15
2022-07-29T00:21:24.111Z,16.16
2022-07-29T00:23:52.606Z,16.11
2022-07-29T00:26:21.318Z,16.08
2022-07-29T00:28:51.059Z,16.06
2022-07-29T00:31:19.202Z,16.04
2022-07-29T00:33:47.326Z,16.04
2022-07-29T00:36:15.429Z,16.02
2022-07-29T00:38:46.269Z,16.05
2022-07-29T00:41:14.518Z,16.03
2022-07-29T00:43:42.980Z,16.03
2022-07-29T00:46:12.866Z,15.95
2022-07-29T00:48:41.080Z,15.90
2022-07-29T00:51:11.389Z,15.88
2022-07-29T00:53:40.330Z,15.91
2022-07-29T00:56:08.575Z,15.92
2022-07-29T00:58:36.662Z,15.92
2022-07-29T01:01:04.972Z,15.91
2022-07-29T01:03:34.587Z,15.91
2022-07-29T01:06:03.015Z,15.91
2022-07-29T01:08:31.437Z,15.92
2022-07-29T01:10:59.681Z,15.91
2022-07-29T01:13:27.816Z,15.91
2022-07-29T01:15:58.988Z,15.87
2022-07-29T01:18:32.705Z,15.86
2022-07-29T01:21:23.155Z,15.84
2022-07-29T01:24:09.828Z,15.82
2022-07-29T01:26:43.703Z,15.84
2022-07-29T01:29:36.067Z,15.84
2022-07-29T01:32:08.519Z,15.84
2022-07-29T01:34:51.040Z,15.82
2022-07-29T01:37:21.298Z,15.82
2022-07-29T01:39:51.455Z,15.82
2022-07-29T01:42:26.350Z,15.81
2022-07-29T01:44:59.538Z,15.81
2022-07-29T01:47:35.779Z,15.79
2022-07-29T01:50:08.079Z,15.79
2022-07-29T01:52:38.763Z,15.79
2022-07-29T01:55:09.935Z,15.80
2022-07-29T01:57:38.803Z,15.80
2022-07-29T02:00:09.491Z,15.77
2022-07-29T02:02:41.735Z,15.79
2022-07-29T02:05:12.618Z,15.77
2022-07-29T02:07:42.197Z,15.78
2022-07-29T02:10:11.619Z,15.73
2022-07-29T02:12:40.254Z,15.72
2022-07-29T02:15:11.871Z,15.75
2022-07-29T02:17:44.242Z,15.73
2022-07-29T02:20:13.621Z,15.76
2022-07-29T02:22:42.483Z,15.77
2022-07-29T02:25:14.089Z,15.77
2022-07-29T02:27:43.781Z,15.79
2022-07-29T02:30:14.203Z,15.80
2022-07-29T02:32:43.816Z,15.81
2022-07-29T02:35:12.882Z,15.81
2022-07-29T02:37:41.953Z,15.82
2022-07-29T02:40:11.547Z,15.81
2022-07-29T02:42:41.075Z,15.81
2022-07-29T02:45:09.837Z,15.80
2022-07-29T02:47:43.108Z,15.81
2022-07-29T02:50:13.986Z,15.80
2022-07-29T02:52:45.470Z,15.79
2022-07-29T02:55:18.839Z,15.78
2022-07-29T02:57:55.492Z,15.76
2022-07-29T03:00:26.208Z,15.72
2022-07-29T03:02:57.198Z,15.71
2022-07-29T03:05:26.436Z,15.66
2022-07-29T03:07:57.023Z,15.63
2022-07-29T03:10:25.677Z,15.61
2022-07-29T03:12:54.143Z,15.58
2022-07-29T03:15:23.294Z,15.56
2022-07-29T03:17:53.964Z,15.54
2022-07-29T03:20:24.130Z,15.51
2022-07-29T03:22:52.738Z,15.50
2022-07-29T03:25:22.080Z,15.47
2022-07-29T03:27:50.556Z,15.46
2022-07-29T03:30:22.173Z,15.45
2022-07-29T03:32:52.227Z,15.45
2022-07-29T03:35:21.675Z,15.42
2022-07-29T03:37:51.764Z,15.42
2022-07-29T03:40:22.327Z,15.41
2022-07-29T03:42:52.442Z,15.39
2022-07-29T03:45:21.226Z,15.38
2022-07-29T03:47:54.681Z,15.36
2022-07-29T03:50:25.618Z,15.40
2022-07-29T03:52:55.525Z,15.40
2022-07-29T03:55:24.165Z,15.40
2022-07-29T03:57:52.861Z,15.42
2022-07-29T04:00:21.155Z,15.43
2022-07-29T04:02:50.537Z,15.42
2022-07-29T04:05:20.245Z,15.43
2022-07-29T04:07:49.495Z,15.43
2022-07-29T04:10:30.382Z,15.45
2022-07-29T04:13:00.844Z,15.46
2022-07-29T04:15:31.009Z,15.45
2022-07-29T04:18:00.014Z,15.44
2022-07-29T04:20:28.231Z,15.43
2022-07-29T04:22:56.495Z,15.43
2022-07-29T04:25:26.361Z,15.44
2022-07-29T04:28:03.329Z,15.42
2022-07-29T04:30:32.162Z,15.42
2022-07-29T04:33:01.924Z,15.42
2022-07-29T04:35:30.216Z,15.40
2022-07-29T04:38:07.074Z,15.40
2022-07-29T04:40:38.543Z,15.38
2022-07-29T04:43:07.435Z,15.38
2022-07-29T04:45:36.573Z,15.38
2022-07-29T04:48:28.229Z,15.37
2022-07-29T04:50:57.192Z,15.36
2022-07-29T04:53:25.502Z,15.35
2022-07-29T04:55:55.057Z,15.37
2022-07-29T04:58:24.254Z,15.36
2022-07-29T05:00:52.635Z,15.37
2022-07-29T05:03:21.934Z,15.38
2022-07-29T05:05:50.058Z,15.39
2022-07-29T05:08:18.486Z,15.41
2022-07-29T05:11:11.745Z,15.44
2022-07-29T05:13:45.270Z,15.45
2022-07-29T05:16:14.806Z,15.48
2022-07-29T05:18:43.347Z,15.50
2022-07-29T05:21:11.474Z,15.50
2022-07-29T05:23:39.740Z,15.52
2022-07-29T05:26:09.258Z,15.52
2022-07-29T05:28:37.385Z,15.56
2022-07-29T05:31:05.551Z,15.58
2022-07-29T05:33:35.578Z,15.59
2022-07-29T05:36:06.669Z,15.60
2022-07-29T05:38:35.522Z,15.63
2022-07-29T05:41:03.700Z,15.65
2022-07-29T05:43:33.270Z,15.68
2022-07-29T05:46:01.841Z,15.71
2022-07-29T05:48:30.475Z,15.76
2022-07-29T05:50:58.625Z,15.80
2022-07-29T05:53:26.905Z,15.84
2022-07-29T05:55:55.022Z,15.90
2022-07-29T05:58:23.485Z,15.94
2022-07-29T06:00:53.907Z,15.98
2022-07-29T06:03:21.941Z,15.99
2022-07-29T06:05:50.047Z,16.02
2022-07-29T06:08:18.581Z,16.05
2022-07-29T06:10:47.470Z,16.13
2022-07-29T06:13:17.090Z,16.16
2022-07-29T06:15:45.680Z,16.18
2022-07-29T06:18:15.794Z,16.22
2022-07-29T06:20:44.277Z,16.26
2022-07-29T06:23:12.420Z,16.30
2022-07-29T06:26:09.879Z,16.36
2022-07-29T06:28:38.486Z,16.38
2022-07-29T06:31:07.697Z,16.42
2022-07-29T06:34:00.054Z,16.52
2022-07-29T06:36:28.699Z,16.55
2022-07-29T06:38:57.019Z,16.59
2022-07-29T06:41:25.511Z,16.64
2022-07-29T06:43:55.291Z,16.63
2022-07-29T06:46:25.146Z,16.67
2022-07-29T06:48:53.872Z,16.70
2022-07-29T06:51:24.312Z,16.74
2022-07-29T06:53:59.418Z,16.77
2022-07-29T06:56:38.582Z,16.83
2022-07-29T06:59:09.497Z,16.89
2022-07-29T07:01:38.569Z,16.99
2022-07-29T07:04:07.014Z,17.17
2022-07-29T07:06:36.833Z,17.35
2022-07-29T07:09:05.233Z,17.73
2022-07-29T07:11:33.607Z,18.40
2022-07-29T07:14:03.797Z,19.20
2022-07-29T07:16:32.678Z,19.97
2022-07-29T07:19:20.626Z,20.75
2022-07-29T07:21:50.306Z,21.45
2022-07-29T07:24:18.578Z,22.21
2022-07-29T07:26:47.238Z,22.89
2022-07-29T07:29:15.437Z,23.44
2022-07-29T07:31:43.889Z,23.90
2022-07-29T07:34:12.271Z,24.59
2022-07-29T07:36:40.775Z,24.63
2022-07-29T07:39:10.277Z,24.92
2022-07-29T07:41:41.603Z,25.05
2022-07-29T07:44:14.163Z,25.12
2022-07-29T07:46:45.974Z,25.38
2022-07-29T07:49:14.333Z,25.44
2022-07-29T07:51:42.796Z,25.22
2022-07-29T07:54:21.089Z,25.61
2022-07-29T07:56:53.325Z,25.54
2022-07-29T07:59:24.622Z,25.85
2022-07-29T08:01:55.749Z,25.85
2022-07-29T08:04:28.656Z,25.78
2022-07-29T08:06:57.442Z,25.75
2022-07-29T08:09:30.327Z,26.02
2022-07-29T08:11:59.194Z,26.20
2022-07-29T08:14:27.280Z,26.43
2022-07-29T08:16:55.374Z,26.45
2022-07-29T08:19:23.532Z,26.80
2022-07-29T08:21:54.804Z,27.18
2022-07-29T08:24:40.647Z,27.46
2022-07-29T08:27:33.429Z,27.65
2022-07-29T08:29:58.726Z,28.17
2022-07-29T08:32:52.047Z,28.30
2022-07-29T08:35:15.151Z,28.51
2022-07-29T08:37:43.233Z,28.84
2022-07-29T08:40:11.938Z,29.54
2022-07-29T08:42:41.722Z,29.97
2022-07-29T08:45:10.474Z,30.44
2022-07-29T08:47:40.964Z,30.47
2022-07-29T08:50:09.639Z,29.97
2022-07-29T08:52:38.687Z,29.36
2022-07-29T08:55:07.644Z,28.96
2022-07-29T08:57:37.241Z,28.48
2022-07-29T09:00:11.583Z,28.11
2022-07-29T09:02:42.531Z,27.76
2022-07-29T09:05:15.623Z,28.00
2022-07-29T09:07:44.960Z,28.21
2022-07-29T09:10:13.085Z,27.85
2022-07-29T09:12:41.262Z,27.75
2022-07-29T09:15:11.644Z,27.73
2022-07-29T09:17:43.850Z,28.43
2022-07-29T09:20:13.122Z,29.05
2022-07-29T09:22:52.220Z,28.79
2022-07-29T09:25:40.032Z,29.52
2022-07-29T09:28:10.415Z,30.14
2022-07-29T09:30:52.668Z,30.20
2022-07-29T09:33:27.770Z,30.68
2022-07-29T09:36:12.005Z,30.56
2022-07-29T09:38:42.314Z,30.84
2022-07-29T09:41:11.757Z,30.03
2022-07-29T09:44:00.341Z,30.32
2022-07-29T09:46:35.722Z,29.56
2022-07-29T09:49:10.242Z,28.90
2022-07-29T09:51:38.992Z,28.57
2022-07-29T09:54:22.901Z,28.01
2022-07-29T09:56:51.170Z,27.87
2022-07-29T09:59:19.296Z,27.31
2022-07-29T10:01:57.731Z,27.36
2022-07-29T10:04:47.274Z,26.80
2022-07-29T10:07:24.376Z,26.54
2022-07-29T10:10:00.814Z,26.09
2022-07-29T10:12:39.571Z,25.99
2022-07-29T10:15:16.906Z,25.73
2022-07-29T10:17:47.870Z,25.57
2022-07-29T10:20:20.474Z,25.53
2022-07-29T10:22:55.748Z,25.55
2022-07-29T10:25:33.570Z,25.48
2022-07-29T10:28:16.690Z,25.28
2022-07-29T10:30:56.346Z,25.06
2022-07-29T10:33:35.361Z,24.82
2022-07-29T10:36:19.018Z,24.62
2022-07-29T10:39:03.320Z,24.42
2022-07-29T10:41:49.616Z,24.45
2022-07-29T10:44:23.076Z,24.10
2022-07-29T10:47:01.228Z,23.91
2022-07-29T10:50:03.163Z,23.79
2022-07-29T10:52:54.367Z,23.57
2022-07-29T10:55:52.308Z,23.49
2022-07-29T10:58:32.545Z,23.27
2022-07-29T11:01:37.558Z,23.32
2022-07-29T11:04:08.167Z,23.60
2022-07-29T11:06:51.243Z,23.86
2022-07-29T11:09:25.711Z,24.19
2022-07-29T11:12:03.840Z,24.35
2022-07-29T11:14:50.895Z,24.43
2022-07-29T11:17:19.076Z,24.27
2022-07-29T11:19:52.002Z,24.24
2022-07-29T11:22:34.197Z,24.43
2022-07-29T11:25:43.035Z,24.44
2022-07-29T11:28:18.471Z,24.47
2022-07-29T11:30:52.131Z,24.72
2022-07-29T11:33:54.329Z,24.71
2022-07-29T11:36:18.590Z,24.52
2022-07-29T11:39:27.493Z,24.42
2022-07-29T11:42:32.553Z,24.43
2022-07-29T11:45:41.416Z,24.29
2022-07-29T11:48:28.742Z,24.25
2022-07-29T11:51:00.519Z,24.08
2022-07-29T11:53:33.055Z,23.85
2022-07-29T11:56:02.642Z,23.95
2022-07-29T11:58:31.517Z,23.96
2022-07-29T12:01:04.271Z,24.02
2022-07-29T12:03:35.881Z,24.03
2022-07-29T12:07:03.978Z,23.81
2022-07-29T12:08:53.694Z,23.89
2022-07-29T12:11:24.769Z,23.70
2022-07-29T12:13:56.243Z,23.69
2022-07-29T12:16:36.690Z,23.48
2022-07-29T12:19:05.463Z,23.28
2022-07-29T12:21:45.767Z,23.34
2022-07-29T12:24:22.894Z,23.33
2022-07-29T12:26:58.987Z,23.28
2022-07-29T12:29:34.912Z,23.34
2022-07-29T12:32:15.013Z,23.19
2022-07-29T12:34:47.952Z,23.28
2022-07-29T12:37:15.978Z,23.37
2022-07-29T12:39:44.628Z,23.43
2022-07-29T12:42:13.983Z,23.56
2022-07-29T12:44:47.477Z,23.67
2022-07-29T12:47:20.263Z,23.85
2022-07-29T12:49:48.975Z,23.82
2022-07-29T12:52:26.443Z,23.79
2022-07-29T12:54:54.806Z,23.83
2022-07-29T12:57:25.742Z,23.80
2022-07-29T13:00:05.503Z,23.88
2022-07-29T13:02:35.501Z,23.98
2022-07-29T13:05:07.364Z,23.81
2022-07-29T13:07:54.334Z,23.84
2022-07-29T13:10:26.017Z,24.03
2022-07-29T13:13:04.410Z,24.07
2022-07-29T13:15:33.024Z,24.17
2022-07-29T13:18:02.515Z,24.22
2022-07-29T13:20:31.699Z,24.18
2022-07-29T13:23:00.876Z,24.32
2022-07-29T13:25:30.220Z,24.21
2022-07-29T13:28:05.930Z,24.19
2022-07-29T13:30:54.654Z,24.40
2022-07-29T13:33:26.191Z,24.63
2022-07-29T13:36:01.010Z,24.81
2022-07-29T13:38:31.573Z,24.82
2022-07-29T13:41:08.930Z,24.89
2022-07-29T13:43:44.266Z,24.73
2022-07-29T13:46:12.426Z,24.83
2022-07-29T13:48:42.052Z,24.56
2022-07-29T13:51:10.357Z,24.43
2022-07-29T13:53:38.611Z,24.43
2022-07-29T13:56:08.041Z,24.43
2022-07-29T13:58:36.178Z,24.19
2022-07-29T14:01:04.354Z,24.03
2022-07-29T14:03:32.655Z,24.10
2022-07-29T14:06:02.196Z,23.88
2022-07-29T14:08:30.430Z,24.02
2022-07-29T14:10:58.694Z,23.88
2022-07-29T14:13:26.744Z,23.88
2022-07-29T14:15:54.878Z,23.77
2022-07-29T14:18:22.989Z,23.92
2022-07-29T14:20:52.174Z,23.91
2022-07-29T14:23:21.826Z,23.92
2022-07-29T14:25:49.997Z,24.01
2022-07-29T14:28:18.123Z,23.85
2022-07-29T14:30:46.460Z,23.63
2022-07-29T14:33:14.584Z,23.49
2022-07-29T14:35:42.872Z,23.17
2022-07-29T14:38:11.430Z,23.09
2022-07-29T14:40:41.116Z,22.87
2022-07-29T14:43:09.286Z,22.80
2022-07-29T14:45:37.453Z,22.82
2022-07-29T14:48:29.220Z,22.77
2022-07-29T14:51:01.840Z,22.76
2022-07-29T14:53:32.903Z,22.92
2022-07-29T14:56:20.884Z,23.06
2022-07-29T14:58:51.999Z,22.87
2022-07-29T15:01:20.576Z,22.88
2022-07-29T15:03:49.085Z,22.75
2022-07-29T15:06:17.212Z,22.69
2022-07-29T15:08:45.385Z,22.66
2022-07-29T15:11:14.908Z,22.57
2022-07-29T15:13:43.238Z,22.52
2022-07-29T15:16:14.562Z,22.52
2022-07-29T15:18:42.914Z,22.71
2022-07-29T15:21:11.167Z,22.86
2022-07-29T15:23:39.709Z,22.94
2022-07-29T15:26:07.865Z,23.13
2022-07-29T15:28:37.675Z,23.15
2022-07-29T15:31:06.217Z,22.98
2022-07-29T15:33:45.010Z,23.04
2022-07-29T15:36:25.488Z,22.93
2022-07-29T15:39:02.273Z,22.93
2022-07-29T15:41:30.396Z,23.02
2022-07-29T15:43:59.960Z,22.93
2022-07-29T15:46:45.337Z,22.99
2022-07-29T15:49:16.597Z,22.99
2022-07-29T15:51:45.362Z,22.91
2022-07-29T15:54:13.625Z,22.87
2022-07-29T15:56:41.694Z,22.64
2022-07-29T15:59:11.490Z,22.54
2022-07-29T16:01:51.049Z,22.48
2022-07-29T16:04:19.338Z,22.45
2022-07-29T16:06:47.990Z,22.44
2022-07-29T16:09:16.740Z,22.26
2022-07-29T16:11:46.454Z,22.23
2022-07-29T16:14:15.980Z,22.22
2022-07-29T16:16:44.285Z,22.01
2022-07-29T16:19:12.887Z,21.99
2022-07-29T16:21:40.994Z,22.07
2022-07-29T16:24:09.471Z,22.14
2022-07-29T16:26:40.619Z,22.11
2022-07-29T16:29:08.894Z,21.98
2022-07-29T16:31:38.550Z,21.98
2022-07-29T16:34:06.846Z,21.94
2022-07-29T16:36:37.697Z,21.93
2022-07-29T16:39:07.101Z,21.84
2022-07-29T16:41:35.215Z,21.80
2022-07-29T16:44:03.536Z,21.85
2022-07-29T16:46:31.873Z,21.85
2022-07-29T16:49:01.369Z,21.94
2022-07-29T16:51:58.934Z,22.11
2022-07-29T16:54:27.648Z,22.21
2022-07-29T16:56:56.249Z,22.18
2022-07-29T16:59:24.682Z,22.09
2022-07-29T17:01:52.956Z,22.01
2022-07-29T17:04:22.869Z,21.96
2022-07-29T17:06:51.170Z,21.98
2022-07-29T17:09:19.606Z,21.96
2022-07-29T17:11:54.839Z,21.85
2022-07-29T17:14:25.028Z,21.89
2022-07-29T17:17:00.655Z,21.74
2022-07-29T17:19:32.356Z,21.78
2022-07-29T17:22:09.431Z,21.70
2022-07-29T17:24:47.698Z,21.55
2022-07-29T17:27:24.314Z,21.54
2022-07-29T17:30:02.428Z,21.60
2022-07-29T17:32:40.923Z,21.60
2022-07-29T17:35:39.499Z,21.60
2022-07-29T17:38:15.098Z,21.54
2022-07-29T17:40:52.205Z,21.45
2022-07-29T17:43:21.784Z,21.34
2022-07-29T17:45:59.635Z,21.14
2022-07-29T17:48:37.939Z,20.96
2022-07-29T17:51:18.747Z,20.94
2022-07-29T17:53:57.645Z,20.77
2022-07-29T17:56:36.769Z,20.68
2022-07-29T17:59:15.454Z,20.55
2022-07-29T18:01:51.892Z,20.41
2022-07-29T18:04:33.735Z,20.40
2022-07-29T18:07:14.396Z,20.38
2022-07-29T18:09:49.177Z,20.40
2022-07-29T18:12:35.054Z,20.34
2022-07-29T18:15:16.142Z,20.27
2022-07-29T18:17:56.813Z,20.18
2022-07-29T18:20:31.116Z,20.13
2022-07-29T18:23:25.193Z,20.03
2022-07-29T18:25:59.296Z,19.98
2022-07-29T18:28:35.463Z,19.96
2022-07-29T18:31:11.248Z,19.96
2022-07-29T18:34:00.073Z,19.85
2022-07-29T18:36:38.601Z,19.69
2022-07-29T18:39:20.755Z,19.72
2022-07-29T18:41:59.400Z,19.73
2022-07-29T18:44:43.682Z,19.66
2022-07-29T18:47:32.190Z,19.60
2022-07-29T18:50:12.163Z,19.57
2022-07-29T18:52:51.085Z,19.59
2022-07-29T18:55:31.170Z,19.57
2022-07-29T18:58:09.113Z,19.60
2022-07-29T19:00:47.537Z,19.58
2022-07-29T19:03:30.529Z,19.58
2022-07-29T19:06:09.317Z,19.58
2022-07-29T19:08:47.393Z,19.55
2022-07-29T19:11:25.916Z,19.56
2022-07-29T19:14:03.094Z,19.43
2022-07-29T19:16:41.191Z,19.36
2022-07-29T19:19:16.681Z,19.33
2022-07-29T19:21:54.193Z,19.34
2022-07-29T19:24:28.830Z,19.32
2022-07-29T19:27:12.271Z,19.32
2022-07-29T19:29:47.301Z,19.33
2022-07-29T19:32:25.410Z,19.22
2022-07-29T19:35:17.435Z,19.26
2022-07-29T19:37:52.412Z,19.29
2022-07-29T19:40:31.511Z,19.25
2022-07-29T19:43:49.732Z,19.25
2022-07-29T19:46:13.195Z,19.22
2022-07-29T19:48:46.717Z,19.23
2022-07-29T19:51:24.124Z,19.24
2022-07-29T19:53:59.411Z,19.20
2022-07-29T19:56:42.126Z,19.21
2022-07-29T19:59:24.596Z,19.16
2022-07-29T20:02:07.802Z,19.18
2022-07-29T20:04:43.300Z,19.19
2022-07-29T20:07:23.532Z,19.17
2022-07-29T20:10:05.108Z,19.22
2022-07-29T20:12:44.056Z,19.18
2022-07-29T20:15:30.146Z,19.17
2022-07-29T20:18:07.134Z,19.19
2022-07-29T20:20:41.724Z,19.19
2022-07-29T20:23:15.804Z,19.20
2022-07-29T20:25:51.333Z,19.16
2022-07-29T20:28:31.447Z,19.15
2022-07-29T20:31:10.164Z,19.16
2022-07-29T20:33:44.375Z,19.16
2022-07-29T20:36:25.592Z,19.04
2022-07-29T20:39:05.099Z,19.08
2022-07-29T20:41:41.616Z,19.07
2022-07-29T20:44:19.700Z,19.07
2022-07-29T20:47:01.165Z,19.07
2022-07-29T20:49:36.700Z,19.05
2022-07-29T20:52:15.305Z,19.04
2022-07-29T20:54:49.568Z,19.02
2022-07-29T20:57:38.873Z,19.05
2022-07-29T21:00:14.450Z,19.02
2022-07-29T21:02:52.708Z,18.96
2022-07-29T21:05:29.889Z,18.96
2022-07-29T21:08:08.409Z,18.93
2022-07-29T21:10:44.697Z,18.93
2022-07-29T21:13:19.008Z,18.89
2022-07-29T21:15:55.093Z,18.90
2022-07-29T21:18:33.907Z,18.80
2022-07-29T21:21:12.367Z,18.82
2022-07-29T21:23:48.376Z,18.83
2022-07-29T21:26:28.006Z,18.82
2022-07-29T21:29:20.386Z,18.82
2022-07-29T21:31:56.631Z,18.81
2022-07-29T21:34:33.303Z,18.80
2022-07-29T21:37:05.291Z,18.74
2022-07-29T21:40:02.473Z,18.75
2022-07-29T21:42:37.720Z,18.70
2022-07-29T21:45:17.933Z,18.69
2022-07-29T21:47:54.529Z,18.68
2022-07-29T21:50:38.532Z,18.71
2022-07-29T21:53:16.015Z,18.67
2022-07-29T21:55:52.362Z,18.67
2022-07-29T21:58:27.855Z,18.63
2022-07-29T22:01:02.015Z,18.64
2022-07-29T22:03:34.816Z,18.56
2022-07-29T22:06:17.942Z,18.59
2022-07-29T22:08:52.225Z,18.63
2022-07-29T22:11:24.662Z,18.65
2022-07-29T22:13:57.794Z,18.64
2022-07-29T22:16:33.150Z,18.57
2022-07-29T22:19:01.483Z,18.59
2022-07-29T22:21:35.072Z,18.58
2022-07-29T22:24:09.493Z,18.57
2022-07-29T22:26:45.697Z,18.59
2022-07-29T22:29:21.248Z,18.62
2022-07-29T22:31:56.143Z,18.55
2022-07-29T22:34:37.074Z,18.55
2022-07-29T22:37:17.732Z,18.55
2022-07-29T22:39:50.415Z,18.52
2022-07-29T22:42:24.907Z,18.53
2022-07-29T22:45:00.231Z,18.52
2022-07-29T22:47:46.242Z,18.51
2022-07-29T22:50:24.238Z,18.46
2022-07-29T22:53:00.564Z,18.45
2022-07-29T22:55:34.456Z,18.45
2022-07-29T22:58:09.833Z,18.46
2022-07-29T23:00:42.712Z,18.34
2022-07-29T23:03:16.267Z,18.36
2022-07-29T23:05:52.726Z,18.34
2022-07-29T23:08:29.912Z,18.30
2022-07-29T23:11:04.296Z,18.33
2022-07-29T23:13:39.635Z,18.34
2022-07-29T23:16:13.449Z,18.33
2022-07-29T23:18:48.860Z,18.23
2022-07-29T23:21:28.127Z,18.30
2022-07-29T23:24:04.135Z,18.25
2022-07-29T23:26:33.113Z,18.23
2022-07-29T23:29:04.804Z,18.26
2022-07-29T23:31:41.754Z,18.26
2022-07-29T23:34:13.891Z,18.26
2022-07-29T23:36:47.204Z,18.23
2022-07-29T23:39:25.393Z,18.22
2022-07-29T23:42:01.239Z,18.22
2022-07-29T23:44:31.026Z,18.19
2022-07-29T23:47:04.342Z,18.22
2022-07-29T23:49:39.461Z,18.20
2022-07-29T23:52:14.125Z,18.21
2022-07-29T23:54:51.634Z,18.20
2022-07-29T23:57:28.308Z,18.18
